Pagina principale
METAR-TAF:

METAR-TAF

Aeroporti :

Aeroporto Internazionale Hosea Kutako

Windhoek, Namibia

latitudine: 22-29S, longitudine: 017-28E, altezza: 1715 m

Osservazione

Il bollettino è stato emesso 1 ora e 2 minuti fa, alle 02:00 UTC
Vento 3 kt da ovest
Temperature 5°C
Umidità 24%
Pressione 1027 hPa
Visibilità 10 km o più
nessuna nube inferiore a 1500 m e nessun cumulonembo

METAR: FYWH 160200Z 26003KT CAVOK 05/M14 Q1027 NOSIG

Ora: 04:02 (03:02 UTC)

Previsione

Il bollettino è stato emesso 5 ore e 2 minuti fa, alle 22:00 UTC
Previsione valida dal 16 alle 00 UTC al 17 alle 00 UTC
Vento 5 kt da est/nord-est
Visibilità 10 km o più
nessuna nube inferiore a 1500 m e nessun cumulonembo
Evoluzione graduale
dal 16 alle 09 UTC al 16 alle 11 UTC
Vento 10 kt da nord

TAF: FYWH 152200Z 1600/1700 07005KT CAVOK BECMG 1609/1611 36010KT

Osservazioni e previsioni meteorologiche di più di 4000 aeroporti (messaggi METAR e TAF).

Le stazioni disponibili sono rappresentate dai dischi gialli e rossi sulla carta.

Puntare il mouse per vedere il nome della stazione.

Clicca sopra per visualizzare le osservazioni e previsioni meteorologiche.

Per cambiare la mappa : fare clic sui pulsanti verdi con una croce nera per ingrandire, il pulsante verde con un trattino per diminuire, o sulla freccia verde per le mappe adiacenti.


METAR-TAF: